Elks Point, Nevada
Current Conditions -  °F | °C
As of 1:02 PM on Tuesday 27 Jan 2015 (Local Time) from KTVL Reporting Station
Light Rain Light Rain  
Wind Chill: 39°   Ceiling: 3000
Heat Index: 39°   Visibility: 10mi
Dew Point: 33°   Wind: 0mph
Humidity: 79%   Direction: NA
Pressure: 30.24"   Gusts: NA
Location:  39.0164°N, 119.925°W
Report Text: KTVL 272102Z AUTO 00000KT 10SM -RA FEW008 BKN030 OVC038 04/01 A3024 RMK AO2 P0000 T00390006
Loading
Personal Weather Stations






























Interactive Weather Map New forecast layout! Learn more

10-Day Weather Forecast

Advertisements
Track Severe Weather on mobile